createdAt,value
2022-08-08T00:00:54.451Z,20.80
2022-08-08T00:02:33.378Z,20.80
2022-08-08T00:05:00.942Z,20.80
2022-08-08T00:07:58.446Z,20.70
2022-08-08T00:10:33.856Z,20.70
2022-08-08T00:14:17.043Z,20.70
2022-08-08T00:16:24.345Z,20.70
2022-08-08T00:19:18.941Z,20.70
2022-08-08T00:22:05.948Z,20.60
2022-08-08T00:24:44.232Z,20.60
2022-08-08T00:27:13.921Z,20.60
2022-08-08T00:30:05.714Z,20.60
2022-08-08T00:32:36.525Z,20.70
2022-08-08T00:35:24.988Z,20.60
2022-08-08T00:38:31.607Z,20.60
2022-08-08T00:41:10.700Z,20.60
2022-08-08T00:44:02.106Z,20.60
2022-08-08T00:46:32.020Z,20.70
2022-08-08T00:49:22.182Z,20.70
2022-08-08T00:52:20.247Z,20.60
2022-08-08T00:55:36.091Z,20.60
2022-08-08T00:58:35.188Z,20.50
2022-08-08T01:01:45.329Z,20.40
2022-08-08T01:05:05.296Z,20.40
2022-08-08T01:07:55.644Z,20.40
2022-08-08T01:10:52.213Z,20.40
2022-08-08T01:13:37.944Z,20.40
2022-08-08T01:16:53.463Z,20.40
2022-08-08T01:19:52.501Z,20.40
2022-08-08T01:22:35.138Z,20.40
2022-08-08T01:25:26.268Z,20.40
2022-08-08T01:28:29.695Z,20.40
2022-08-08T01:32:05.143Z,20.40
2022-08-08T01:34:29.523Z,20.40
2022-08-08T01:37:56.505Z,20.30
2022-08-08T01:40:22.757Z,20.30
2022-08-08T01:43:00.275Z,20.30
2022-08-08T01:45:29.471Z,20.30
2022-08-08T01:48:23.723Z,20.30
2022-08-08T01:51:31.882Z,20.30
2022-08-08T01:55:26.622Z,20.20
2022-08-08T01:58:04.524Z,20.20
2022-08-08T02:01:03.542Z,20.10
2022-08-08T02:03:58.370Z,20.10
2022-08-08T02:06:36.960Z,20.10
2022-08-08T02:10:02.333Z,20.10
2022-08-08T02:12:30.096Z,20.10
2022-08-08T02:15:05.173Z,20.00
2022-08-08T02:17:47.714Z,20.00
2022-08-08T02:21:02.899Z,19.90
2022-08-08T02:23:32.142Z,19.80
2022-08-08T02:26:10.149Z,19.90
2022-08-08T02:28:51.966Z,19.80
2022-08-08T02:31:59.623Z,19.90
2022-08-08T02:34:38.576Z,19.80
2022-08-08T02:37:52.632Z,19.90
2022-08-08T02:40:28.203Z,19.90
2022-08-08T02:44:39.151Z,19.90
2022-08-08T02:46:34.021Z,19.90
2022-08-08T02:49:47.251Z,19.90
2022-08-08T02:52:35.397Z,19.80
2022-08-08T02:55:37.127Z,19.80
2022-08-08T02:58:47.708Z,19.80
2022-08-08T03:01:55.529Z,19.80
2022-08-08T03:05:02.330Z,19.70
2022-08-08T03:07:58.962Z,19.70
2022-08-08T03:10:44.483Z,19.70
2022-08-08T03:15:57.497Z,19.70
2022-08-08T03:16:40.017Z,19.70
2022-08-08T03:19:20.070Z,19.70
2022-08-08T03:21:58.370Z,19.70
2022-08-08T03:24:32.835Z,19.70
2022-08-08T03:27:21.726Z,19.70
2022-08-08T03:30:06.867Z,19.70
2022-08-08T03:32:59.896Z,19.60
2022-08-08T03:35:37.207Z,19.70
2022-08-08T03:38:55.894Z,19.60
2022-08-08T03:40:56.020Z,19.60
2022-08-08T03:43:31.461Z,19.60
2022-08-08T03:46:09.218Z,19.60
2022-08-08T03:49:30.842Z,19.60
2022-08-08T03:51:50.438Z,19.60
2022-08-08T03:54:41.827Z,19.60
2022-08-08T03:58:33.455Z,19.60
2022-08-08T04:00:18.304Z,19.60
2022-08-08T04:03:00.378Z,19.50
2022-08-08T04:05:31.371Z,19.60
2022-08-08T04:08:06.679Z,19.50
2022-08-08T04:10:37.473Z,19.50
2022-08-08T04:13:18.065Z,19.60
2022-08-08T04:15:55.165Z,19.60
2022-08-08T04:18:44.745Z,19.60
2022-08-08T04:21:20.077Z,19.60
2022-08-08T04:24:05.389Z,19.60
2022-08-08T04:26:57.654Z,19.60
2022-08-08T04:29:36.748Z,19.60
2022-08-08T04:32:07.791Z,19.70
2022-08-08T04:34:43.029Z,19.70
2022-08-08T04:37:31.594Z,19.70
2022-08-08T04:40:10.762Z,19.70
2022-08-08T04:42:56.886Z,19.70
2022-08-08T04:45:33.706Z,19.70
2022-08-08T04:48:05.752Z,19.80
2022-08-08T04:50:38.702Z,19.80
2022-08-08T04:53:14.145Z,19.90
2022-08-08T04:56:00.987Z,20.00
2022-08-08T04:58:33.112Z,20.00
2022-08-08T05:01:08.985Z,20.10
2022-08-08T05:04:09.877Z,20.20
2022-08-08T05:06:29.056Z,20.30
2022-08-08T05:09:03.039Z,20.40
2022-08-08T05:11:38.837Z,20.40
2022-08-08T05:14:12.383Z,20.50
2022-08-08T05:16:55.526Z,20.50
2022-08-08T05:20:12.462Z,20.50
2022-08-08T05:22:22.239Z,20.60
2022-08-08T05:24:51.383Z,20.60
2022-08-08T05:27:21.807Z,20.70
2022-08-08T05:29:52.466Z,20.60
2022-08-08T05:32:27.384Z,20.60
2022-08-08T05:35:04.656Z,20.60
2022-08-08T05:37:52.901Z,20.70
2022-08-08T05:40:57.225Z,20.70
2022-08-08T05:43:39.366Z,20.70
2022-08-08T05:46:19.524Z,20.80
2022-08-08T05:48:52.168Z,20.90
2022-08-08T05:51:23.307Z,21.00
2022-08-08T05:54:28.803Z,21.00
2022-08-08T05:56:47.397Z,21.10
2022-08-08T06:00:01.056Z,21.10
2022-08-08T06:02:48.762Z,21.20
2022-08-08T06:05:34.533Z,21.30
2022-08-08T06:08:09.119Z,21.30
2022-08-08T06:10:41.397Z,21.40
2022-08-08T06:13:12.434Z,21.50
2022-08-08T06:15:50.818Z,21.60
2022-08-08T06:18:30.213Z,21.60
2022-08-08T06:21:03.731Z,21.60
2022-08-08T06:23:52.885Z,21.60
2022-08-08T06:26:43.174Z,21.60
2022-08-08T06:29:48.724Z,21.70
2022-08-08T06:32:15.200Z,21.80
2022-08-08T06:35:12.165Z,21.80
2022-08-08T06:37:50.878Z,21.80
2022-08-08T06:40:25.816Z,21.90
2022-08-08T06:43:03.362Z,21.90
2022-08-08T06:45:39.202Z,21.80
2022-08-08T06:48:08.653Z,21.90
2022-08-08T06:50:39.788Z,22.00
2022-08-08T06:53:17.193Z,22.00
2022-08-08T06:56:00.505Z,22.10
2022-08-08T06:58:33.563Z,22.20
2022-08-08T07:01:52.801Z,22.30
2022-08-08T07:04:37.121Z,22.30
2022-08-08T07:07:00.100Z,22.30
2022-08-08T07:09:45.346Z,22.30
2022-08-08T07:12:43.056Z,22.20
2022-08-08T07:15:32.786Z,22.20
2022-08-08T07:18:36.697Z,22.20
2022-08-08T07:21:04.939Z,22.10
2022-08-08T07:24:01.726Z,22.00
2022-08-08T07:26:41.152Z,22.00
2022-08-08T07:29:20.170Z,22.00
2022-08-08T07:31:58.928Z,21.90
2022-08-08T07:34:31.571Z,21.90
2022-08-08T07:37:11.808Z,21.90
2022-08-08T07:39:45.597Z,21.90
2022-08-08T07:42:25.899Z,21.90
2022-08-08T07:45:02.777Z,21.90
2022-08-08T07:47:38.441Z,21.90
2022-08-08T07:50:09.834Z,22.00
2022-08-08T07:52:43.535Z,22.10
2022-08-08T07:55:23.275Z,22.10
2022-08-08T07:58:31.927Z,22.10
2022-08-08T08:01:06.210Z,22.10
2022-08-08T08:04:01.697Z,22.20
2022-08-08T08:06:34.160Z,22.40
2022-08-08T08:09:13.249Z,22.60
2022-08-08T08:11:51.774Z,22.70
2022-08-08T08:14:34.063Z,22.90
2022-08-08T08:17:02.237Z,22.80
2022-08-08T08:19:45.694Z,23.00
2022-08-08T08:22:31.318Z,23.00
2022-08-08T08:25:07.942Z,22.90
2022-08-08T08:27:37.300Z,22.80
2022-08-08T08:30:07.348Z,22.80
2022-08-08T08:32:36.628Z,22.80
2022-08-08T08:35:15.275Z,22.80
2022-08-08T08:38:12.989Z,22.90
2022-08-08T08:40:34.705Z,22.90
2022-08-08T08:43:04.880Z,22.90
2022-08-08T08:45:39.669Z,22.90
2022-08-08T08:48:10.683Z,23.00
2022-08-08T08:50:52.095Z,23.00
2022-08-08T08:53:28.042Z,23.10
2022-08-08T08:56:23.783Z,23.10
2022-08-08T08:58:53.224Z,23.30
2022-08-08T09:01:32.174Z,23.50
2022-08-08T09:04:30.970Z,23.60
2022-08-08T09:06:59.511Z,23.80
2022-08-08T09:09:39.762Z,24.00
2022-08-08T09:12:22.805Z,24.20
2022-08-08T09:14:55.701Z,24.10
2022-08-08T09:17:40.913Z,24.20
2022-08-08T09:21:56.517Z,24.40
2022-08-08T09:23:05.341Z,24.60
2022-08-08T09:25:58.397Z,24.90
2022-08-08T09:28:38.537Z,24.80
2022-08-08T09:31:16.896Z,24.90
2022-08-08T09:34:15.521Z,24.90
2022-08-08T09:36:51.751Z,24.80
2022-08-08T09:40:00.192Z,24.70
2022-08-08T09:42:44.142Z,24.90
2022-08-08T09:45:55.149Z,25.10
2022-08-08T09:48:17.743Z,25.40
2022-08-08T09:50:51.705Z,25.90
2022-08-08T09:53:53.065Z,26.10
2022-08-08T09:56:21.763Z,26.40
2022-08-08T09:59:05.338Z,26.50
2022-08-08T10:02:00.148Z,26.80
2022-08-08T10:04:38.468Z,26.80
2022-08-08T10:07:15.968Z,27.00
2022-08-08T10:10:00.672Z,27.00
2022-08-08T10:12:38.777Z,27.10
2022-08-08T10:15:21.370Z,27.00
2022-08-08T10:18:04.112Z,27.00
2022-08-08T10:20:51.027Z,27.10
2022-08-08T10:23:41.809Z,27.10
2022-08-08T10:26:25.819Z,27.10
2022-08-08T10:29:11.249Z,26.90
2022-08-08T10:32:00.464Z,27.00
2022-08-08T10:34:29.872Z,27.00
2022-08-08T10:36:59.718Z,27.00
2022-08-08T10:39:31.763Z,27.10
2022-08-08T10:42:27.734Z,27.30
2022-08-08T10:45:16.044Z,27.40
2022-08-08T10:47:53.688Z,27.40
2022-08-08T10:50:30.861Z,27.20
2022-08-08T10:53:04.717Z,26.80
2022-08-08T10:55:40.901Z,26.50
2022-08-08T10:58:11.733Z,26.30
2022-08-08T11:00:53.578Z,26.20
2022-08-08T11:04:01.353Z,26.20
2022-08-08T11:06:34.366Z,26.00
2022-08-08T11:09:09.644Z,25.80
2022-08-08T11:12:05.960Z,25.80
2022-08-08T11:14:27.889Z,25.90
2022-08-08T11:16:55.925Z,26.20
2022-08-08T11:19:28.371Z,26.30
2022-08-08T11:21:59.588Z,26.60
2022-08-08T11:24:29.069Z,27.30
2022-08-08T11:27:00.995Z,28.00
2022-08-08T11:29:51.061Z,28.20
2022-08-08T11:32:32.080Z,28.60
2022-08-08T11:35:27.138Z,28.80
2022-08-08T11:38:36.628Z,28.70
2022-08-08T11:40:42.869Z,28.20
2022-08-08T11:43:13.743Z,27.90
2022-08-08T11:46:07.038Z,28.00
2022-08-08T11:48:32.325Z,28.20
2022-08-08T11:51:00.790Z,28.30
2022-08-08T11:53:55.328Z,28.40
2022-08-08T11:56:34.669Z,28.00
2022-08-08T11:59:11.996Z,28.10
2022-08-08T12:01:39.518Z,28.20
2022-08-08T12:04:09.345Z,28.40
2022-08-08T12:06:39.421Z,28.50
2022-08-08T12:09:17.322Z,28.40
2022-08-08T12:11:49.427Z,28.40
2022-08-08T12:14:28.956Z,28.90
2022-08-08T12:16:57.374Z,29.50
2022-08-08T12:19:37.415Z,29.70
2022-08-08T12:22:21.074Z,29.50
2022-08-08T12:24:53.727Z,29.80
2022-08-08T12:27:26.726Z,29.90
2022-08-08T12:29:57.398Z,30.10
2022-08-08T12:32:24.840Z,29.70
2022-08-08T12:35:13.116Z,29.60
2022-08-08T12:37:48.182Z,29.90
2022-08-08T12:40:54.466Z,29.90
2022-08-08T12:43:46.312Z,29.60
2022-08-08T12:46:25.351Z,29.50
2022-08-08T12:49:21.854Z,29.10
2022-08-08T12:51:53.768Z,28.70
2022-08-08T12:54:33.287Z,28.70
2022-08-08T12:57:25.819Z,28.70
2022-08-08T13:00:05.144Z,28.50
2022-08-08T13:02:51.457Z,28.40
2022-08-08T13:05:25.627Z,28.20
2022-08-08T13:08:03.517Z,27.80
2022-08-08T13:10:36.616Z,27.70
2022-08-08T13:13:34.676Z,27.60
2022-08-08T13:16:19.391Z,27.60
2022-08-08T13:18:57.024Z,27.60
2022-08-08T13:21:36.289Z,27.50
2022-08-08T13:24:18.774Z,27.30
2022-08-08T13:27:04.847Z,27.50
2022-08-08T13:29:40.865Z,27.60
2022-08-08T13:32:10.682Z,27.90
2022-08-08T13:34:40.032Z,28.20
2022-08-08T13:37:10.715Z,28.20
2022-08-08T13:39:55.416Z,28.30
2022-08-08T13:42:25.070Z,28.50
2022-08-08T13:44:56.979Z,28.80
2022-08-08T13:47:25.725Z,28.80
2022-08-08T13:50:35.546Z,28.70
2022-08-08T13:52:52.114Z,28.60
2022-08-08T13:55:29.600Z,28.70
2022-08-08T13:58:08.102Z,28.60
2022-08-08T14:00:40.362Z,28.30
2022-08-08T14:03:47.260Z,28.20
2022-08-08T14:06:32.338Z,28.00
2022-08-08T14:09:18.440Z,27.80
2022-08-08T14:11:48.841Z,27.70
2022-08-08T14:14:20.619Z,27.60
2022-08-08T14:16:52.958Z,27.70
2022-08-08T14:19:57.857Z,27.70
2022-08-08T14:22:24.730Z,27.60
2022-08-08T14:24:54.012Z,27.50
2022-08-08T14:27:28.854Z,27.40
2022-08-08T14:29:57.343Z,27.30
2022-08-08T14:32:30.052Z,27.10
2022-08-08T14:35:06.337Z,27.10
2022-08-08T14:37:59.914Z,27.10
2022-08-08T14:40:30.412Z,27.10
2022-08-08T14:43:01.362Z,26.70
2022-08-08T14:45:46.825Z,26.50
2022-08-08T14:48:27.498Z,26.40
2022-08-08T14:51:07.233Z,26.30
2022-08-08T14:53:54.675Z,26.20
2022-08-08T14:56:24.740Z,26.30
2022-08-08T14:58:54.273Z,26.20
2022-08-08T15:01:40.633Z,26.30
2022-08-08T15:04:11.089Z,26.20
2022-08-08T15:06:39.024Z,26.10
2022-08-08T15:09:09.841Z,25.90
2022-08-08T15:11:43.085Z,25.90
2022-08-08T15:14:15.180Z,25.90
2022-08-08T15:16:44.529Z,25.80
2022-08-08T15:19:11.926Z,25.70
2022-08-08T15:21:43.237Z,25.50
2022-08-08T15:24:12.849Z,25.50
2022-08-08T15:26:46.712Z,25.40
2022-08-08T15:29:22.441Z,25.20
2022-08-08T15:32:03.992Z,25.10
2022-08-08T15:34:38.852Z,25.00
2022-08-08T15:37:07.731Z,24.80
2022-08-08T15:39:37.909Z,24.80
2022-08-08T15:42:10.405Z,24.70
2022-08-08T15:44:42.503Z,24.60
2022-08-08T15:47:15.953Z,24.50
2022-08-08T15:49:48.025Z,24.50
2022-08-08T15:52:17.862Z,24.40
2022-08-08T15:54:47.828Z,24.50
2022-08-08T15:57:19.732Z,24.40
2022-08-08T16:00:05.426Z,24.30
2022-08-08T16:02:50.292Z,24.30
2022-08-08T16:05:20.606Z,24.30
2022-08-08T16:07:51.465Z,24.20
2022-08-08T16:13:10.726Z,24.00
2022-08-08T16:13:27.957Z,24.00
2022-08-08T16:16:08.950Z,23.90
2022-08-08T16:18:37.289Z,23.80
2022-08-08T16:21:20.515Z,23.70
2022-08-08T16:23:48.720Z,23.70
2022-08-08T16:26:19.266Z,23.70
2022-08-08T16:28:50.091Z,23.50
2022-08-08T16:31:18.737Z,23.40
2022-08-08T16:33:51.015Z,23.40
2022-08-08T16:36:33.953Z,23.40
2022-08-08T16:39:09.589Z,23.40
2022-08-08T16:41:51.233Z,23.30
2022-08-08T16:44:27.804Z,23.10
2022-08-08T16:47:40.326Z,23.00
2022-08-08T16:50:14.190Z,22.90
2022-08-08T16:54:59.769Z,22.90
2022-08-08T16:55:53.744Z,22.90
2022-08-08T16:58:26.267Z,22.90
2022-08-08T17:00:55.555Z,22.80
2022-08-08T17:03:57.912Z,22.80
2022-08-08T17:06:37.071Z,22.70
2022-08-08T17:09:03.546Z,22.70
2022-08-08T17:11:39.409Z,22.60
2022-08-08T17:14:17.901Z,22.50
2022-08-08T17:16:51.658Z,22.40
2022-08-08T17:19:24.661Z,22.30
2022-08-08T17:21:52.019Z,22.30
2022-08-08T17:24:27.912Z,22.30
2022-08-08T17:26:59.077Z,22.30
2022-08-08T17:29:27.987Z,22.30
2022-08-08T17:31:57.454Z,22.30
2022-08-08T17:34:48.199Z,22.30
2022-08-08T17:37:15.765Z,22.20
2022-08-08T17:40:12.362Z,22.30
2022-08-08T17:42:34.410Z,22.20
2022-08-08T17:45:03.504Z,22.20
2022-08-08T17:47:37.725Z,22.20
2022-08-08T17:50:09.681Z,22.20
2022-08-08T17:52:38.415Z,22.10
2022-08-08T17:56:04.774Z,22.00
2022-08-08T17:58:01.878Z,22.00
2022-08-08T18:00:31.512Z,21.90
2022-08-08T18:03:08.363Z,21.80
2022-08-08T18:05:49.615Z,21.70
2022-08-08T18:08:25.210Z,21.70
2022-08-08T18:11:15.463Z,21.50
2022-08-08T18:13:47.977Z,21.50
2022-08-08T18:16:23.177Z,21.40
2022-08-08T18:18:56.653Z,21.40
2022-08-08T18:21:58.735Z,21.30
2022-08-08T18:24:19.541Z,21.20
2022-08-08T18:26:53.839Z,21.10
2022-08-08T18:29:34.157Z,21.10
2022-08-08T18:32:09.159Z,21.10
2022-08-08T18:34:40.408Z,21.10
2022-08-08T18:37:33.929Z,21.00
2022-08-08T18:39:58.485Z,21.00
2022-08-08T18:42:25.791Z,21.00
2022-08-08T18:44:55.338Z,20.90
2022-08-08T18:47:27.063Z,20.90
2022-08-08T18:49:58.377Z,20.90
2022-08-08T18:52:28.323Z,20.80
2022-08-08T18:55:00.766Z,20.80
2022-08-08T18:57:41.231Z,20.80
2022-08-08T19:00:16.559Z,20.80
2022-08-08T19:02:56.646Z,20.70
2022-08-08T19:05:32.130Z,20.60
2022-08-08T19:08:25.268Z,20.50
2022-08-08T19:10:59.437Z,20.40
2022-08-08T19:13:53.685Z,20.30
2022-08-08T19:16:19.315Z,20.30
2022-08-08T19:18:53.346Z,20.20
2022-08-08T19:21:30.546Z,20.10
2022-08-08T19:24:01.021Z,20.10
2022-08-08T19:26:35.243Z,20.00
2022-08-08T19:29:04.461Z,20.00
2022-08-08T19:31:34.992Z,19.90
2022-08-08T19:34:35.764Z,20.00
2022-08-08T19:36:55.183Z,19.90
2022-08-08T19:39:23.305Z,19.90
2022-08-08T19:41:51.018Z,19.80
2022-08-08T19:44:42.667Z,19.70
2022-08-08T19:47:06.667Z,19.60
2022-08-08T19:49:37.722Z,19.60
2022-08-08T19:52:07.084Z,19.60
2022-08-08T19:54:34.188Z,19.60
2022-08-08T19:57:04.331Z,19.60
2022-08-08T19:59:35.925Z,19.60
2022-08-08T20:02:10.720Z,19.60
2022-08-08T20:04:38.295Z,19.60
2022-08-08T20:08:27.946Z,19.70
2022-08-08T20:09:57.121Z,19.70
2022-08-08T20:12:32.922Z,19.70
2022-08-08T20:15:10.410Z,19.80
2022-08-08T20:17:45.205Z,19.80
2022-08-08T20:20:18.815Z,19.70
2022-08-08T20:22:48.726Z,19.70
2022-08-08T20:25:20.276Z,19.60
2022-08-08T20:27:49.382Z,19.60
2022-08-08T20:30:38.866Z,19.60
2022-08-08T20:33:18.387Z,19.50
2022-08-08T20:35:59.011Z,19.50
2022-08-08T20:38:33.431Z,19.50
2022-08-08T20:41:05.778Z,19.40
2022-08-08T20:43:49.841Z,19.40
2022-08-08T20:46:20.968Z,19.30
2022-08-08T20:48:58.616Z,19.20
2022-08-08T20:51:32.361Z,19.30
2022-08-08T20:54:10.465Z,19.20
2022-08-08T20:57:04.675Z,19.20
2022-08-08T20:59:31.291Z,19.20
2022-08-08T21:02:07.194Z,19.20
2022-08-08T21:04:36.817Z,19.20
2022-08-08T21:07:13.170Z,19.30
2022-08-08T21:10:02.309Z,19.30
2022-08-08T21:12:36.381Z,19.30
2022-08-08T21:15:06.697Z,19.30
2022-08-08T21:17:35.586Z,19.30
2022-08-08T21:20:05.251Z,19.30
2022-08-08T21:22:32.602Z,19.30
2022-08-08T21:25:00.348Z,19.30
2022-08-08T21:28:05.507Z,19.30
2022-08-08T21:30:21.695Z,19.30
2022-08-08T21:32:52.195Z,19.30
2022-08-08T21:36:17.233Z,19.20
2022-08-08T21:38:16.300Z,19.20
2022-08-08T21:40:56.314Z,19.20
2022-08-08T21:43:32.945Z,19.10
2022-08-08T21:48:07.085Z,19.00
2022-08-08T21:48:53.941Z,18.90
2022-08-08T21:54:18.486Z,18.90
2022-08-08T21:54:33.709Z,18.90
2022-08-08T21:57:01.580Z,18.80
2022-08-08T22:00:01.775Z,18.80
2022-08-08T22:02:19.620Z,18.70
2022-08-08T22:04:51.505Z,18.60
2022-08-08T22:07:18.954Z,18.60
2022-08-08T22:09:46.661Z,18.60
2022-08-08T22:12:15.128Z,18.60
2022-08-08T22:14:47.229Z,18.60
2022-08-08T22:17:18.433Z,18.50
2022-08-08T22:20:11.883Z,18.50
2022-08-08T22:22:36.093Z,18.50
2022-08-08T22:25:19.805Z,18.50
2022-08-08T22:28:03.959Z,18.50
2022-08-08T22:30:42.369Z,18.50
2022-08-08T22:33:22.193Z,18.50
2022-08-08T22:36:04.466Z,18.50
2022-08-08T22:38:48.103Z,18.50
2022-08-08T22:41:21.258Z,18.50
2022-08-08T22:44:05.724Z,18.40
2022-08-08T22:46:38.648Z,18.50
2022-08-08T22:49:09.025Z,18.40
2022-08-08T22:51:42.198Z,18.40
2022-08-08T22:54:34.251Z,18.40
2022-08-08T22:56:58.290Z,18.40
2022-08-08T22:59:25.832Z,18.40
2022-08-08T23:02:02.156Z,18.40
2022-08-08T23:04:33.570Z,18.40
2022-08-08T23:07:02.671Z,18.40
2022-08-08T23:09:39.346Z,18.30
2022-08-08T23:12:39.940Z,18.30
2022-08-08T23:15:10.825Z,18.30
2022-08-08T23:17:58.389Z,18.30
2022-08-08T23:20:27.146Z,18.40
2022-08-08T23:22:55.406Z,18.40
2022-08-08T23:25:23.625Z,18.50
2022-08-08T23:27:54.312Z,18.50
2022-08-08T23:30:23.780Z,18.50
2022-08-08T23:32:51.593Z,18.60
2022-08-08T23:35:19.094Z,18.60
2022-08-08T23:38:02.903Z,18.60
2022-08-08T23:40:31.679Z,18.60
2022-08-08T23:43:02.677Z,18.60
2022-08-08T23:49:02.528Z,18.60
2022-08-08T23:49:06.164Z,18.60
2022-08-08T23:51:12.723Z,18.50
2022-08-08T23:54:01.313Z,18.50
2022-08-08T23:56:34.229Z,18.50
2022-08-08T23:59:02.436Z,18.50
